sensor_id;sensor_type;location;lat;lon;timestamp;P1;durP1;ratioP1;P2;durP2;ratioP2
79624;SDS011;69101;45.534;10.218;2023-04-16T00:00:00;9.82;;;3.40;;
79624;SDS011;69101;45.534;10.218;2023-04-16T00:02:28;8.88;;;2.95;;
79624;SDS011;69101;45.534;10.218;2023-04-16T00:04:53;9.45;;;3.15;;
79624;SDS011;69101;45.534;10.218;2023-04-16T00:07:19;9.25;;;3.03;;
79624;SDS011;69101;45.534;10.218;2023-04-16T00:09:44;10.32;;;3.42;;
79624;SDS011;69101;45.534;10.218;2023-04-16T00:12:10;9.05;;;3.10;;
79624;SDS011;69101;45.534;10.218;2023-04-16T00:14:36;9.23;;;3.10;;
79624;SDS011;69101;45.534;10.218;2023-04-16T00:17:01;9.70;;;3.03;;
79624;SDS011;69101;45.534;10.218;2023-04-16T00:19:27;9.85;;;3.20;;
79624;SDS011;69101;45.534;10.218;2023-04-16T00:21:52;9.85;;;3.25;;
79624;SDS011;69101;45.534;10.218;2023-04-16T00:24:18;9.57;;;3.20;;
79624;SDS011;69101;45.534;10.218;2023-04-16T00:26:43;9.10;;;3.13;;
79624;SDS011;69101;45.534;10.218;2023-04-16T00:29:10;8.98;;;3.20;;
79624;SDS011;69101;45.534;10.218;2023-04-16T00:31:36;9.45;;;3.00;;
79624;SDS011;69101;45.534;10.218;2023-04-16T00:34:01;9.05;;;3.10;;
79624;SDS011;69101;45.534;10.218;2023-04-16T00:36:27;9.52;;;3.17;;
79624;SDS011;69101;45.534;10.218;2023-04-16T00:38:53;10.10;;;3.17;;
79624;SDS011;69101;45.534;10.218;2023-04-16T00:41:19;9.25;;;3.22;;
79624;SDS011;69101;45.534;10.218;2023-04-16T00:43:45;8.88;;;2.97;;
79624;SDS011;69101;45.534;10.218;2023-04-16T00:46:11;9.55;;;3.03;;
79624;SDS011;69101;45.534;10.218;2023-04-16T00:48:37;9.95;;;3.25;;
79624;SDS011;69101;45.534;10.218;2023-04-16T00:51:04;9.52;;;3.05;;
79624;SDS011;69101;45.534;10.218;2023-04-16T00:53:30;9.27;;;3.10;;
79624;SDS011;69101;45.534;10.218;2023-04-16T00:55:56;9.45;;;3.22;;
79624;SDS011;69101;45.534;10.218;2023-04-16T00:58:21;10.43;;;3.15;;
79624;SDS011;69101;45.534;10.218;2023-04-16T01:00:47;9.52;;;2.92;;
79624;SDS011;69101;45.534;10.218;2023-04-16T01:03:13;9.52;;;3.22;;
79624;SDS011;69101;45.534;10.218;2023-04-16T01:05:38;9.05;;;2.90;;
79624;SDS011;69101;45.534;10.218;2023-04-16T01:08:04;9.80;;;2.88;;
79624;SDS011;69101;45.534;10.218;2023-04-16T01:10:30;10.50;;;3.30;;
79624;SDS011;69101;45.534;10.218;2023-04-16T01:12:55;9.65;;;3.00;;
79624;SDS011;69101;45.534;10.218;2023-04-16T01:15:20;9.23;;;3.03;;
79624;SDS011;69101;45.534;10.218;2023-04-16T01:17:46;8.43;;;2.75;;
79624;SDS011;69101;45.534;10.218;2023-04-16T01:20:11;9.35;;;3.08;;
79624;SDS011;69101;45.534;10.218;2023-04-16T01:22:37;9.50;;;3.15;;
79624;SDS011;69101;45.534;10.218;2023-04-16T01:25:02;9.35;;;3.05;;
79624;SDS011;69101;45.534;10.218;2023-04-16T01:27:28;9.30;;;3.05;;
79624;SDS011;69101;45.534;10.218;2023-04-16T01:29:53;9.65;;;3.17;;
79624;SDS011;69101;45.534;10.218;2023-04-16T01:32:20;9.15;;;3.03;;
79624;SDS011;69101;45.534;10.218;2023-04-16T01:34:45;9.18;;;2.90;;
79624;SDS011;69101;45.534;10.218;2023-04-16T01:37:11;9.93;;;3.40;;
79624;SDS011;69101;45.534;10.218;2023-04-16T01:39:36;9.30;;;3.42;;
79624;SDS011;69101;45.534;10.218;2023-04-16T01:42:02;9.18;;;3.05;;
79624;SDS011;69101;45.534;10.218;2023-04-16T01:44:27;9.15;;;2.92;;
79624;SDS011;69101;45.534;10.218;2023-04-16T01:46:53;9.45;;;3.13;;
79624;SDS011;69101;45.534;10.218;2023-04-16T01:49:18;9.90;;;3.22;;
79624;SDS011;69101;45.534;10.218;2023-04-16T01:51:44;9.20;;;3.10;;
79624;SDS011;69101;45.534;10.218;2023-04-16T01:54:12;9.55;;;3.13;;
79624;SDS011;69101;45.534;10.218;2023-04-16T01:56:38;9.40;;;2.90;;
79624;SDS011;69101;45.534;10.218;2023-04-16T01:59:03;9.43;;;3.15;;
79624;SDS011;69101;45.534;10.218;2023-04-16T02:01:28;9.50;;;3.00;;
79624;SDS011;69101;45.534;10.218;2023-04-16T02:03:54;10.65;;;3.30;;
79624;SDS011;69101;45.534;10.218;2023-04-16T02:06:21;9.82;;;3.22;;
79624;SDS011;69101;45.534;10.218;2023-04-16T02:08:46;9.05;;;2.80;;
79624;SDS011;69101;45.534;10.218;2023-04-16T02:11:12;9.10;;;3.00;;
79624;SDS011;69101;45.534;10.218;2023-04-16T02:13:37;9.63;;;3.13;;
79624;SDS011;69101;45.534;10.218;2023-04-16T02:16:03;9.15;;;3.10;;
79624;SDS011;69101;45.534;10.218;2023-04-16T02:18:31;9.27;;;3.33;;
79624;SDS011;69101;45.534;10.218;2023-04-16T02:20:57;8.73;;;2.90;;
79624;SDS011;69101;45.534;10.218;2023-04-16T02:23:26;9.18;;;2.90;;
79624;SDS011;69101;45.534;10.218;2023-04-16T02:25:51;9.27;;;2.92;;
79624;SDS011;69101;45.534;10.218;2023-04-16T02:28:17;9.10;;;2.97;;
79624;SDS011;69101;45.534;10.218;2023-04-16T02:30:42;8.57;;;2.85;;
79624;SDS011;69101;45.534;10.218;2023-04-16T02:33:09;9.32;;;3.28;;
79624;SDS011;69101;45.534;10.218;2023-04-16T02:35:36;8.57;;;3.05;;
79624;SDS011;69101;45.534;10.218;2023-04-16T02:38:02;9.38;;;2.92;;
79624;SDS011;69101;45.534;10.218;2023-04-16T02:40:28;8.70;;;2.83;;
79624;SDS011;69101;45.534;10.218;2023-04-16T02:42:55;9.23;;;2.80;;
79624;SDS011;69101;45.534;10.218;2023-04-16T02:45:20;10.25;;;3.22;;
79624;SDS011;69101;45.534;10.218;2023-04-16T02:47:47;9.52;;;3.08;;
79624;SDS011;69101;45.534;10.218;2023-04-16T02:50:12;9.95;;;3.10;;
79624;SDS011;69101;45.534;10.218;2023-04-16T02:52:38;10.20;;;2.90;;
79624;SDS011;69101;45.534;10.218;2023-04-16T02:55:04;8.80;;;2.80;;
79624;SDS011;69101;45.534;10.218;2023-04-16T02:57:30;9.10;;;2.80;;
79624;SDS011;69101;45.534;10.218;2023-04-16T02:59:56;9.27;;;3.15;;
79624;SDS011;69101;45.534;10.218;2023-04-16T03:02:21;9.52;;;3.00;;
79624;SDS011;69101;45.534;10.218;2023-04-16T03:04:46;9.40;;;3.00;;
79624;SDS011;69101;45.534;10.218;2023-04-16T03:07:12;9.68;;;2.80;;
79624;SDS011;69101;45.534;10.218;2023-04-16T03:09:37;8.60;;;2.75;;
79624;SDS011;69101;45.534;10.218;2023-04-16T03:12:03;8.70;;;2.75;;
79624;SDS011;69101;45.534;10.218;2023-04-16T03:14:29;8.95;;;2.75;;
79624;SDS011;69101;45.534;10.218;2023-04-16T03:16:55;9.10;;;2.60;;
79624;SDS011;69101;45.534;10.218;2023-04-16T03:19:21;9.05;;;2.97;;
79624;SDS011;69101;45.534;10.218;2023-04-16T03:21:46;8.70;;;2.70;;
79624;SDS011;69101;45.534;10.218;2023-04-16T03:24:12;9.80;;;2.88;;
79624;SDS011;69101;45.534;10.218;2023-04-16T03:26:37;9.07;;;3.17;;
79624;SDS011;69101;45.534;10.218;2023-04-16T03:29:03;8.43;;;2.65;;
79624;SDS011;69101;45.534;10.218;2023-04-16T03:31:28;8.38;;;2.60;;
79624;SDS011;69101;45.534;10.218;2023-04-16T03:33:53;10.07;;;3.38;;
79624;SDS011;69101;45.534;10.218;2023-04-16T03:36:19;9.60;;;2.97;;
79624;SDS011;69101;45.534;10.218;2023-04-16T03:38:44;9.98;;;3.13;;
79624;SDS011;69101;45.534;10.218;2023-04-16T03:41:10;8.88;;;2.88;;
79624;SDS011;69101;45.534;10.218;2023-04-16T03:43:35;9.40;;;2.90;;
79624;SDS011;69101;45.534;10.218;2023-04-16T03:46:00;9.07;;;2.88;;
79624;SDS011;69101;45.534;10.218;2023-04-16T03:48:26;8.45;;;2.53;;
79624;SDS011;69101;45.534;10.218;2023-04-16T03:50:51;9.00;;;2.80;;
79624;SDS011;69101;45.534;10.218;2023-04-16T03:53:16;9.07;;;2.70;;
79624;SDS011;69101;45.534;10.218;2023-04-16T03:55:42;9.13;;;2.92;;
79624;SDS011;69101;45.534;10.218;2023-04-16T03:58:07;9.15;;;2.80;;
79624;SDS011;69101;45.534;10.218;2023-04-16T04:00:33;8.77;;;2.63;;
79624;SDS011;69101;45.534;10.218;2023-04-16T04:02:58;9.23;;;2.80;;
79624;SDS011;69101;45.534;10.218;2023-04-16T04:05:24;9.30;;;2.67;;
79624;SDS011;69101;45.534;10.218;2023-04-16T04:07:50;9.98;;;3.25;;
79624;SDS011;69101;45.534;10.218;2023-04-16T04:10:15;10.38;;;3.00;;
79624;SDS011;69101;45.534;10.218;2023-04-16T04:12:40;8.88;;;2.72;;
79624;SDS011;69101;45.534;10.218;2023-04-16T04:15:06;8.68;;;2.80;;
79624;SDS011;69101;45.534;10.218;2023-04-16T04:17:32;9.15;;;3.00;;
79624;SDS011;69101;45.534;10.218;2023-04-16T04:19:58;8.70;;;3.00;;
79624;SDS011;69101;45.534;10.218;2023-04-16T04:22:23;8.93;;;2.78;;
79624;SDS011;69101;45.534;10.218;2023-04-16T04:24:51;8.90;;;2.80;;
79624;SDS011;69101;45.534;10.218;2023-04-16T04:27:17;9.02;;;2.85;;
79624;SDS011;69101;45.534;10.218;2023-04-16T04:29:42;9.85;;;3.10;;
79624;SDS011;69101;45.534;10.218;2023-04-16T04:32:07;8.75;;;2.85;;
79624;SDS011;69101;45.534;10.218;2023-04-16T04:34:33;9.27;;;3.10;;
79624;SDS011;69101;45.534;10.218;2023-04-16T04:36:58;9.18;;;3.08;;
79624;SDS011;69101;45.534;10.218;2023-04-16T04:39:23;9.18;;;3.03;;
79624;SDS011;69101;45.534;10.218;2023-04-16T04:41:49;9.68;;;3.13;;
79624;SDS011;69101;45.534;10.218;2023-04-16T04:44:14;9.65;;;3.13;;
79624;SDS011;69101;45.534;10.218;2023-04-16T04:46:39;9.68;;;2.92;;
79624;SDS011;69101;45.534;10.218;2023-04-16T04:49:05;9.02;;;2.92;;
79624;SDS011;69101;45.534;10.218;2023-04-16T04:51:30;9.00;;;3.20;;
79624;SDS011;69101;45.534;10.218;2023-04-16T04:53:56;9.45;;;2.90;;
79624;SDS011;69101;45.534;10.218;2023-04-16T04:56:22;9.20;;;3.05;;
79624;SDS011;69101;45.534;10.218;2023-04-16T04:58:48;9.20;;;2.90;;
79624;SDS011;69101;45.534;10.218;2023-04-16T05:01:15;9.57;;;2.83;;
79624;SDS011;69101;45.534;10.218;2023-04-16T05:03:40;10.23;;;3.38;;
79624;SDS011;69101;45.534;10.218;2023-04-16T05:06:06;9.50;;;3.20;;
79624;SDS011;69101;45.534;10.218;2023-04-16T05:08:31;10.38;;;3.30;;
79624;SDS011;69101;45.534;10.218;2023-04-16T05:10:57;9.85;;;3.22;;
79624;SDS011;69101;45.534;10.218;2023-04-16T05:13:22;9.82;;;3.50;;
79624;SDS011;69101;45.534;10.218;2023-04-16T05:15:48;9.48;;;3.20;;
79624;SDS011;69101;45.534;10.218;2023-04-16T05:18:13;8.52;;;3.03;;
79624;SDS011;69101;45.534;10.218;2023-04-16T05:20:38;10.55;;;3.40;;
79624;SDS011;69101;45.534;10.218;2023-04-16T05:23:04;9.93;;;3.50;;
79624;SDS011;69101;45.534;10.218;2023-04-16T05:25:30;9.68;;;3.35;;
79624;SDS011;69101;45.534;10.218;2023-04-16T05:27:55;9.55;;;3.10;;
79624;SDS011;69101;45.534;10.218;2023-04-16T05:30:21;9.73;;;3.03;;
79624;SDS011;69101;45.534;10.218;2023-04-16T05:32:46;9.95;;;3.10;;
79624;SDS011;69101;45.534;10.218;2023-04-16T05:35:11;9.20;;;2.97;;
79624;SDS011;69101;45.534;10.218;2023-04-16T05:37:37;9.80;;;3.13;;
79624;SDS011;69101;45.534;10.218;2023-04-16T05:40:02;9.85;;;3.00;;
79624;SDS011;69101;45.534;10.218;2023-04-16T05:42:28;8.82;;;3.00;;
79624;SDS011;69101;45.534;10.218;2023-04-16T05:44:53;9.20;;;3.08;;
79624;SDS011;69101;45.534;10.218;2023-04-16T05:47:18;9.18;;;3.25;;
79624;SDS011;69101;45.534;10.218;2023-04-16T05:49:44;10.13;;;3.35;;
79624;SDS011;69101;45.534;10.218;2023-04-16T05:52:09;10.40;;;3.40;;
79624;SDS011;69101;45.534;10.218;2023-04-16T05:54:35;9.50;;;3.10;;
79624;SDS011;69101;45.534;10.218;2023-04-16T05:57:00;10.20;;;2.85;;
79624;SDS011;69101;45.534;10.218;2023-04-16T05:59:26;9.82;;;3.10;;
79624;SDS011;69101;45.534;10.218;2023-04-16T06:01:51;9.68;;;3.25;;
79624;SDS011;69101;45.534;10.218;2023-04-16T06:04:18;9.20;;;3.08;;
79624;SDS011;69101;45.534;10.218;2023-04-16T06:06:44;9.20;;;2.97;;
79624;SDS011;69101;45.534;10.218;2023-04-16T06:09:09;9.43;;;3.00;;
79624;SDS011;69101;45.534;10.218;2023-04-16T06:11:35;9.88;;;3.20;;
79624;SDS011;69101;45.534;10.218;2023-04-16T06:14:00;8.93;;;2.80;;
79624;SDS011;69101;45.534;10.218;2023-04-16T06:16:25;9.60;;;3.20;;
79624;SDS011;69101;45.534;10.218;2023-04-16T06:18:51;9.68;;;3.00;;
79624;SDS011;69101;45.534;10.218;2023-04-16T06:21:16;9.05;;;3.00;;
79624;SDS011;69101;45.534;10.218;2023-04-16T06:23:41;9.15;;;3.05;;
79624;SDS011;69101;45.534;10.218;2023-04-16T06:26:07;9.60;;;3.17;;
79624;SDS011;69101;45.534;10.218;2023-04-16T06:28:32;12.10;;;3.22;;
79624;SDS011;69101;45.534;10.218;2023-04-16T06:30:58;9.18;;;2.92;;
79624;SDS011;69101;45.534;10.218;2023-04-16T06:33:24;8.43;;;2.67;;
79624;SDS011;69101;45.534;10.218;2023-04-16T06:35:50;9.65;;;3.10;;
79624;SDS011;69101;45.534;10.218;2023-04-16T06:38:15;9.75;;;3.45;;
79624;SDS011;69101;45.534;10.218;2023-04-16T06:40:43;9.20;;;3.03;;
79624;SDS011;69101;45.534;10.218;2023-04-16T06:43:09;9.25;;;2.90;;
79624;SDS011;69101;45.534;10.218;2023-04-16T06:45:35;9.45;;;2.88;;
79624;SDS011;69101;45.534;10.218;2023-04-16T06:48:00;9.65;;;3.47;;
79624;SDS011;69101;45.534;10.218;2023-04-16T06:50:27;10.00;;;3.35;;
79624;SDS011;69101;45.534;10.218;2023-04-16T06:52:53;9.70;;;3.47;;
79624;SDS011;69101;45.534;10.218;2023-04-16T06:55:19;9.38;;;3.17;;
79624;SDS011;69101;45.534;10.218;2023-04-16T06:57:44;9.48;;;3.10;;
79624;SDS011;69101;45.534;10.218;2023-04-16T07:00:10;10.05;;;3.35;;
79624;SDS011;69101;45.534;10.218;2023-04-16T07:02:36;10.70;;;3.17;;
79624;SDS011;69101;45.534;10.218;2023-04-16T07:05:01;9.13;;;2.97;;
79624;SDS011;69101;45.534;10.218;2023-04-16T07:07:26;10.20;;;3.10;;
79624;SDS011;69101;45.534;10.218;2023-04-16T07:09:52;8.93;;;2.67;;
79624;SDS011;69101;45.534;10.218;2023-04-16T07:12:18;11.15;;;2.75;;
79624;SDS011;69101;45.534;10.218;2023-04-16T07:14:44;9.40;;;3.00;;
79624;SDS011;69101;45.534;10.218;2023-04-16T07:17:10;9.60;;;2.92;;
79624;SDS011;69101;45.534;10.218;2023-04-16T07:19:36;9.68;;;3.08;;
79624;SDS011;69101;45.534;10.218;2023-04-16T07:22:01;8.88;;;2.60;;
79624;SDS011;69101;45.534;10.218;2023-04-16T07:24:26;8.40;;;2.63;;
79624;SDS011;69101;45.534;10.218;2023-04-16T07:26:52;10.38;;;3.15;;
79624;SDS011;69101;45.534;10.218;2023-04-16T07:29:17;8.52;;;2.88;;
79624;SDS011;69101;45.534;10.218;2023-04-16T07:31:43;8.52;;;2.70;;
79624;SDS011;69101;45.534;10.218;2023-04-16T07:34:09;8.82;;;2.67;;
79624;SDS011;69101;45.534;10.218;2023-04-16T07:36:34;8.65;;;2.92;;
79624;SDS011;69101;45.534;10.218;2023-04-16T07:39:00;9.40;;;2.78;;
79624;SDS011;69101;45.534;10.218;2023-04-16T07:41:25;9.45;;;2.88;;
79624;SDS011;69101;45.534;10.218;2023-04-16T07:43:51;9.23;;;3.13;;
79624;SDS011;69101;45.534;10.218;2023-04-16T07:46:16;9.13;;;2.70;;
79624;SDS011;69101;45.534;10.218;2023-04-16T07:48:41;8.88;;;2.85;;
79624;SDS011;69101;45.534;10.218;2023-04-16T07:51:07;9.35;;;2.80;;
79624;SDS011;69101;45.534;10.218;2023-04-16T07:53:32;9.57;;;2.72;;
79624;SDS011;69101;45.534;10.218;2023-04-16T07:55:58;9.32;;;2.72;;
79624;SDS011;69101;45.534;10.218;2023-04-16T07:58:23;8.02;;;2.38;;
79624;SDS011;69101;45.534;10.218;2023-04-16T08:00:48;8.45;;;2.20;;
79624;SDS011;69101;45.534;10.218;2023-04-16T08:03:14;9.32;;;2.67;;
79624;SDS011;69101;45.534;10.218;2023-04-16T08:05:40;8.13;;;2.60;;
79624;SDS011;69101;45.534;10.218;2023-04-16T08:08:05;8.57;;;2.38;;
79624;SDS011;69101;45.534;10.218;2023-04-16T08:10:31;9.50;;;2.65;;
79624;SDS011;69101;45.534;10.218;2023-04-16T08:12:58;8.18;;;2.13;;
79624;SDS011;69101;45.534;10.218;2023-04-16T08:15:24;9.50;;;2.80;;
79624;SDS011;69101;45.534;10.218;2023-04-16T08:17:50;7.97;;;2.20;;
79624;SDS011;69101;45.534;10.218;2023-04-16T08:20:15;7.45;;;2.20;;
79624;SDS011;69101;45.534;10.218;2023-04-16T08:22:41;7.97;;;2.38;;
79624;SDS011;69101;45.534;10.218;2023-04-16T08:25:06;8.65;;;2.40;;
79624;SDS011;69101;45.534;10.218;2023-04-16T08:27:32;8.30;;;2.22;;
79624;SDS011;69101;45.534;10.218;2023-04-16T08:29:58;8.38;;;2.40;;
79624;SDS011;69101;45.534;10.218;2023-04-16T08:32:24;9.32;;;2.72;;
79624;SDS011;69101;45.534;10.218;2023-04-16T08:34:51;9.20;;;2.70;;
79624;SDS011;69101;45.534;10.218;2023-04-16T08:37:16;8.30;;;2.40;;
79624;SDS011;69101;45.534;10.218;2023-04-16T08:39:41;8.65;;;2.45;;
79624;SDS011;69101;45.534;10.218;2023-04-16T08:42:10;7.78;;;2.00;;
79624;SDS011;69101;45.534;10.218;2023-04-16T08:44:40;8.38;;;2.22;;
79624;SDS011;69101;45.534;10.218;2023-04-16T08:47:11;9.32;;;2.40;;
79624;SDS011;69101;45.534;10.218;2023-04-16T08:49:42;7.82;;;2.30;;
79624;SDS011;69101;45.534;10.218;2023-04-16T08:52:09;8.45;;;2.13;;
79624;SDS011;69101;45.534;10.218;2023-04-16T08:54:45;7.72;;;2.38;;
79624;SDS011;69101;45.534;10.218;2023-04-16T08:57:17;8.68;;;2.40;;
79624;SDS011;69101;45.534;10.218;2023-04-16T08:59:47;8.23;;;2.35;;
79624;SDS011;69101;45.534;10.218;2023-04-16T09:02:13;8.10;;;2.30;;
79624;SDS011;69101;45.534;10.218;2023-04-16T09:04:40;8.30;;;2.08;;
79624;SDS011;69101;45.534;10.218;2023-04-16T09:07:07;7.60;;;2.28;;
79624;SDS011;69101;45.534;10.218;2023-04-16T09:09:33;7.82;;;2.08;;
79624;SDS011;69101;45.534;10.218;2023-04-16T09:11:59;7.50;;;2.13;;
79624;SDS011;69101;45.534;10.218;2023-04-16T09:14:24;8.82;;;2.55;;
79624;SDS011;69101;45.534;10.218;2023-04-16T09:16:50;8.30;;;2.38;;
79624;SDS011;69101;45.534;10.218;2023-04-16T09:19:18;8.32;;;2.30;;
79624;SDS011;69101;45.534;10.218;2023-04-16T09:21:44;8.48;;;2.10;;
79624;SDS011;69101;45.534;10.218;2023-04-16T09:24:11;7.75;;;2.17;;
79624;SDS011;69101;45.534;10.218;2023-04-16T09:26:36;7.57;;;2.00;;
79624;SDS011;69101;45.534;10.218;2023-04-16T09:29:02;7.88;;;2.10;;
79624;SDS011;69101;45.534;10.218;2023-04-16T09:31:28;7.80;;;2.00;;
79624;SDS011;69101;45.534;10.218;2023-04-16T09:34:11;7.63;;;1.90;;
79624;SDS011;69101;45.534;10.218;2023-04-16T09:36:37;8.05;;;2.50;;
79624;SDS011;69101;45.534;10.218;2023-04-16T09:39:02;6.78;;;1.90;;
79624;SDS011;69101;45.534;10.218;2023-04-16T09:41:29;7.35;;;1.92;;
79624;SDS011;69101;45.534;10.218;2023-04-16T09:43:59;8.43;;;2.30;;
79624;SDS011;69101;45.534;10.218;2023-04-16T09:46:36;7.47;;;1.98;;
79624;SDS011;69101;45.534;10.218;2023-04-16T09:49:12;8.50;;;2.38;;
79624;SDS011;69101;45.534;10.218;2023-04-16T09:51:40;7.75;;;2.15;;
79624;SDS011;69101;45.534;10.218;2023-04-16T09:54:06;7.85;;;2.10;;
79624;SDS011;69101;45.534;10.218;2023-04-16T09:56:31;8.93;;;2.40;;
79624;SDS011;69101;45.534;10.218;2023-04-16T09:58:58;7.05;;;1.83;;
79624;SDS011;69101;45.534;10.218;2023-04-16T10:01:24;8.38;;;2.20;;
79624;SDS011;69101;45.534;10.218;2023-04-16T10:03:52;7.93;;;2.30;;
79624;SDS011;69101;45.534;10.218;2023-04-16T10:06:18;7.57;;;2.22;;
79624;SDS011;69101;45.534;10.218;2023-04-16T10:11:14;7.25;;;1.90;;
79624;SDS011;69101;45.534;10.218;2023-04-16T10:13:40;8.13;;;2.05;;
79624;SDS011;69101;45.534;10.218;2023-04-16T10:16:06;7.10;;;2.00;;
79624;SDS011;69101;45.534;10.218;2023-04-16T10:18:34;8.52;;;2.45;;
79624;SDS011;69101;45.534;10.218;2023-04-16T10:21:01;7.35;;;2.00;;
79624;SDS011;69101;45.534;10.218;2023-04-16T10:23:27;7.70;;;2.20;;
79624;SDS011;69101;45.534;10.218;2023-04-16T10:25:53;7.97;;;2.20;;
79624;SDS011;69101;45.534;10.218;2023-04-16T10:28:19;7.97;;;2.20;;
79624;SDS011;69101;45.534;10.218;2023-04-16T10:30:46;7.97;;;1.90;;
79624;SDS011;69101;45.534;10.218;2023-04-16T10:33:18;7.32;;;2.00;;
79624;SDS011;69101;45.534;10.218;2023-04-16T10:35:51;7.53;;;2.08;;
79624;SDS011;69101;45.534;10.218;2023-04-16T10:38:23;7.45;;;2.00;;
79624;SDS011;69101;45.534;10.218;2023-04-16T10:41:12;8.35;;;2.03;;
79624;SDS011;69101;45.534;10.218;2023-04-16T10:43:41;7.28;;;1.83;;
79624;SDS011;69101;45.534;10.218;2023-04-16T10:46:17;7.65;;;2.00;;
79624;SDS011;69101;45.534;10.218;2023-04-16T10:51:29;8.07;;;2.15;;
79624;SDS011;69101;45.534;10.218;2023-04-16T10:54:01;7.63;;;1.90;;
79624;SDS011;69101;45.534;10.218;2023-04-16T10:56:33;8.20;;;2.45;;
79624;SDS011;69101;45.534;10.218;2023-04-16T10:58:59;8.07;;;2.17;;
79624;SDS011;69101;45.534;10.218;2023-04-16T11:01:28;7.85;;;2.15;;
79624;SDS011;69101;45.534;10.218;2023-04-16T11:03:54;7.53;;;1.90;;
79624;SDS011;69101;45.534;10.218;2023-04-16T11:06:23;7.93;;;2.10;;
79624;SDS011;69101;45.534;10.218;2023-04-16T11:08:50;8.07;;;1.90;;
79624;SDS011;69101;45.534;10.218;2023-04-16T11:11:19;8.20;;;2.03;;
79624;SDS011;69101;45.534;10.218;2023-04-16T11:13:45;7.85;;;2.03;;
79624;SDS011;69101;45.534;10.218;2023-04-16T11:16:14;6.68;;;1.95;;
79624;SDS011;69101;45.534;10.218;2023-04-16T11:18:40;6.28;;;1.92;;
79624;SDS011;69101;45.534;10.218;2023-04-16T11:21:10;7.25;;;1.83;;
79624;SDS011;69101;45.534;10.218;2023-04-16T11:23:49;6.95;;;1.90;;
79624;SDS011;69101;45.534;10.218;2023-04-16T11:26:25;7.57;;;1.80;;
79624;SDS011;69101;45.534;10.218;2023-04-16T11:31:19;8.18;;;1.98;;
79624;SDS011;69101;45.534;10.218;2023-04-16T11:33:45;8.90;;;2.50;;
79624;SDS011;69101;45.534;10.218;2023-04-16T11:36:11;6.45;;;1.80;;
79624;SDS011;69101;45.534;10.218;2023-04-16T11:38:36;7.28;;;1.75;;
79624;SDS011;69101;45.534;10.218;2023-04-16T11:41:04;9.20;;;2.63;;
79624;SDS011;69101;45.534;10.218;2023-04-16T11:43:30;7.03;;;1.95;;
79624;SDS011;69101;45.534;10.218;2023-04-16T11:48:45;8.15;;;2.00;;
79624;SDS011;69101;45.534;10.218;2023-04-16T11:51:17;8.10;;;2.20;;
79624;SDS011;69101;45.534;10.218;2023-04-16T11:53:47;7.40;;;1.80;;
79624;SDS011;69101;45.534;10.218;2023-04-16T11:56:14;6.78;;;1.80;;
79624;SDS011;69101;45.534;10.218;2023-04-16T11:58:41;7.55;;;1.90;;
79624;SDS011;69101;45.534;10.218;2023-04-16T12:01:07;8.35;;;1.88;;
79624;SDS011;69101;45.534;10.218;2023-04-16T12:03:40;6.90;;;1.80;;
79624;SDS011;69101;45.534;10.218;2023-04-16T12:06:10;5.55;;;1.67;;
79624;SDS011;69101;45.534;10.218;2023-04-16T12:08:35;7.30;;;2.00;;
79624;SDS011;69101;45.534;10.218;2023-04-16T12:11:01;8.75;;;2.20;;
79624;SDS011;69101;45.534;10.218;2023-04-16T12:13:26;6.82;;;1.60;;
79624;SDS011;69101;45.534;10.218;2023-04-16T12:15:53;8.93;;;2.00;;
79624;SDS011;69101;45.534;10.218;2023-04-16T12:18:20;7.55;;;2.30;;
79624;SDS011;69101;45.534;10.218;2023-04-16T12:20:52;6.60;;;1.80;;
79624;SDS011;69101;45.534;10.218;2023-04-16T12:23:22;7.15;;;1.83;;
79624;SDS011;69101;45.534;10.218;2023-04-16T12:25:47;7.18;;;1.70;;
79624;SDS011;69101;45.534;10.218;2023-04-16T12:28:14;7.65;;;1.88;;
79624;SDS011;69101;45.534;10.218;2023-04-16T12:30:50;7.78;;;2.00;;
79624;SDS011;69101;45.534;10.218;2023-04-16T12:33:16;6.32;;;1.73;;
79624;SDS011;69101;45.534;10.218;2023-04-16T12:35:42;6.38;;;1.60;;
79624;SDS011;69101;45.534;10.218;2023-04-16T12:38:08;6.88;;;1.85;;
79624;SDS011;69101;45.534;10.218;2023-04-16T12:40:34;6.35;;;1.70;;
79624;SDS011;69101;45.534;10.218;2023-04-16T12:43:00;6.97;;;1.75;;
79624;SDS011;69101;45.534;10.218;2023-04-16T12:45:26;7.35;;;1.80;;
79624;SDS011;69101;45.534;10.218;2023-04-16T12:47:53;6.10;;;1.60;;
79624;SDS011;69101;45.534;10.218;2023-04-16T12:50:19;6.32;;;1.83;;
79624;SDS011;69101;45.534;10.218;2023-04-16T12:52:45;7.60;;;1.90;;
79624;SDS011;69101;45.534;10.218;2023-04-16T12:55:10;7.78;;;1.83;;
79624;SDS011;69101;45.534;10.218;2023-04-16T12:57:37;7.22;;;1.90;;
79624;SDS011;69101;45.534;10.218;2023-04-16T13:00:03;6.53;;;1.75;;
79624;SDS011;69101;45.534;10.218;2023-04-16T13:02:30;7.22;;;1.92;;
79624;SDS011;69101;45.534;10.218;2023-04-16T13:04:56;8.10;;;1.90;;
79624;SDS011;69101;45.534;10.218;2023-04-16T13:07:22;6.70;;;1.77;;
79624;SDS011;69101;45.534;10.218;2023-04-16T13:09:48;8.18;;;2.28;;
79624;SDS011;69101;45.534;10.218;2023-04-16T13:12:14;7.43;;;1.92;;
79624;SDS011;69101;45.534;10.218;2023-04-16T13:14:40;7.00;;;1.70;;
79624;SDS011;69101;45.534;10.218;2023-04-16T13:17:05;9.05;;;1.90;;
79624;SDS011;69101;45.534;10.218;2023-04-16T13:19:31;7.78;;;1.92;;
79624;SDS011;69101;45.534;10.218;2023-04-16T13:21:56;7.18;;;1.80;;
79624;SDS011;69101;45.534;10.218;2023-04-16T13:24:22;7.07;;;1.73;;
79624;SDS011;69101;45.534;10.218;2023-04-16T13:26:49;6.70;;;1.67;;
79624;SDS011;69101;45.534;10.218;2023-04-16T13:29:16;6.63;;;1.70;;
79624;SDS011;69101;45.534;10.218;2023-04-16T13:31:41;7.07;;;2.00;;
79624;SDS011;69101;45.534;10.218;2023-04-16T13:34:07;5.55;;;1.58;;
79624;SDS011;69101;45.534;10.218;2023-04-16T13:36:32;7.90;;;2.00;;
79624;SDS011;69101;45.534;10.218;2023-04-16T13:38:58;6.88;;;1.77;;
79624;SDS011;69101;45.534;10.218;2023-04-16T13:41:24;7.95;;;1.73;;
79624;SDS011;69101;45.534;10.218;2023-04-16T13:43:49;7.55;;;2.03;;
79624;SDS011;69101;45.534;10.218;2023-04-16T13:46:15;7.03;;;2.17;;
79624;SDS011;69101;45.534;10.218;2023-04-16T13:48:40;7.53;;;1.90;;
79624;SDS011;69101;45.534;10.218;2023-04-16T13:51:05;6.40;;;1.95;;
79624;SDS011;69101;45.534;10.218;2023-04-16T13:53:32;7.70;;;2.00;;
79624;SDS011;69101;45.534;10.218;2023-04-16T13:55:57;6.80;;;1.75;;
79624;SDS011;69101;45.534;10.218;2023-04-16T13:58:23;7.30;;;1.63;;
79624;SDS011;69101;45.534;10.218;2023-04-16T14:00:48;7.05;;;1.75;;
79624;SDS011;69101;45.534;10.218;2023-04-16T14:03:14;8.38;;;1.80;;
79624;SDS011;69101;45.534;10.218;2023-04-16T14:05:39;7.30;;;2.00;;
79624;SDS011;69101;45.534;10.218;2023-04-16T14:08:05;6.28;;;1.60;;
79624;SDS011;69101;45.534;10.218;2023-04-16T14:10:30;6.13;;;1.70;;
79624;SDS011;69101;45.534;10.218;2023-04-16T14:12:56;6.10;;;1.63;;
79624;SDS011;69101;45.534;10.218;2023-04-16T14:15:22;6.32;;;1.63;;
79624;SDS011;69101;45.534;10.218;2023-04-16T14:17:50;6.43;;;1.67;;
79624;SDS011;69101;45.534;10.218;2023-04-16T14:20:15;7.18;;;1.88;;
79624;SDS011;69101;45.534;10.218;2023-04-16T14:22:41;7.90;;;2.10;;
79624;SDS011;69101;45.534;10.218;2023-04-16T14:25:07;7.05;;;1.92;;
79624;SDS011;69101;45.534;10.218;2023-04-16T14:27:33;6.90;;;1.80;;
79624;SDS011;69101;45.534;10.218;2023-04-16T14:29:59;6.47;;;1.70;;
79624;SDS011;69101;45.534;10.218;2023-04-16T14:32:24;6.50;;;1.77;;
79624;SDS011;69101;45.534;10.218;2023-04-16T14:34:50;7.53;;;1.98;;
79624;SDS011;69101;45.534;10.218;2023-04-16T14:37:16;7.40;;;1.90;;